EG-0003 weather

Bilbeis 2 Airfield
Bilbeis, Sharqia Governorate, Egypt

Public forecast

Using degrees Celsius for public forecast. Weather courtesy of forecast.io.

METAR (pilot weather report)

Closest report is Cairo International Airport, 22.9 nm (42.3 km) SW. Retrieved 2019/03/20 13:30 UTC (5 minutes ago):

HECA 201330Z 02011KT CAVOK 24/10 Q1014 NOSIG

TAF (pilot weather forecast)

Closest forecast is Cairo International Airport, 22.9 nm (42.3 km) SW. Retrieved 2019/03/20 12:45 UTC (50 minutes ago):

TAF TAF HECA 201100Z 2012/2118 01008KT CAVOK 00/2106 VRB03KT 4000 BR NSC